Terminal Aerodrome Forecast
Issued by NWS

Current Version | Previous Version | Text Only | Print | Product List | Glossary Off
Versions: 1 2 3 4 5 6 7 8 9 10 11 12 13 14 15 16 17 18 19 20 21 22 23 24

892
FTUS41 KILN 141139
TAFLUK
TAF
KLUK 141139Z 1412/1512 33009KT P6SM BKN030
     FM141600 35004KT P6SM SCT035 BKN200
     FM150200 VRB02KT P6SM OVC150
     FM151000 23003KT P6SM SCT050=

USA.gov is the U.S. government's official web portal to all federal, state and local government web resources and services.